BAW34N KMIA-EGLL
Flight info
| Callsign | BAW34N |
|---|---|
| Flight time | N/A |
| Altitude | 35000 |
| Route | FOLZZ3 SUMRS/M084F350 M204 ALOBI/M084F370 M204 SOORY DCT 43N050W 46N040W 49N030W 50N020W DCT SOMAX DCT ATSUR/N0489F390 DCT EVRIN DCT INFEC DCT JETZI DCT AMFUL DCT ORZEB/N0394F230 P2 SIRIC |
| Aircraft | A388/J-SADE2E3FGHIJ3J4J5M1RWXY/LB1D1 |
Departure
| Time | N/A |
|---|---|
| Airport | Miami International Airport (KMIA) |
Arrival
| Time | 2026-04-30 20:37 |
|---|---|
| Airport | London Heathrow Airport (EGLL) |
| Time | Latitude | Longitude | Altitude | Speed | Heading |
|---|---|---|---|---|---|
| 2026-04-30 20:08 | 51.52339 | -4.00938 | 37115 ft | 477 kts | 103° |
| 2026-04-30 20:08 | 51.51152 | -3.90475 | 37108 ft | 476 kts | 103° |
| 2026-04-30 20:09 | 51.49956 | -3.80016 | 37117 ft | 475 kts | 103° |
| 2026-04-30 20:09 | 51.48152 | -3.64398 | 37136 ft | 474 kts | 103° |
| 2026-04-30 20:10 | 51.47116 | -3.48564 | 37139 ft | 476 kts | 98° |
| 2026-04-30 20:11 | 51.46196 | -3.32927 | 36776 ft | 469 kts | 98° |
| 2026-04-30 20:11 | 51.45887 | -3.27749 | 36311 ft | 467 kts | 98° |
| 2026-04-30 20:11 | 51.45578 | -3.22638 | 35538 ft | 469 kts | 98° |
| 2026-04-30 20:12 | 51.44931 | -3.12059 | 33669 ft | 475 kts | 99° |
| 2026-04-30 20:12 | 51.44650 | -3.07486 | 33136 ft | 470 kts | 98° |
| 2026-04-30 20:12 | 51.44388 | -3.03218 | 32838 ft | 461 kts | 99° |
| 2026-04-30 20:13 | 51.44074 | -2.98152 | 32286 ft | 455 kts | 99° |
| 2026-04-30 20:13 | 51.43759 | -2.93154 | 31420 ft | 457 kts | 98° |
| 2026-04-30 20:13 | 51.43439 | -2.88109 | 30854 ft | 452 kts | 98° |
| 2026-04-30 20:13 | 51.43124 | -2.83153 | 30493 ft | 443 kts | 98° |
| 2026-04-30 20:14 | 51.42811 | -2.78260 | 29728 ft | 442 kts | 98° |
| 2026-04-30 20:14 | 51.42495 | -2.73367 | 29035 ft | 439 kts | 99° |
| 2026-04-30 20:14 | 51.42183 | -2.68549 | 28655 ft | 430 kts | 99° |
| 2026-04-30 20:14 | 51.41876 | -2.63839 | 28328 ft | 422 kts | 99° |
| 2026-04-30 20:15 | 51.41569 | -2.59182 | 27723 ft | 420 kts | 99° |
| 2026-04-30 20:15 | 51.41263 | -2.54556 | 27280 ft | 414 kts | 99° |
| 2026-04-30 20:15 | 51.40961 | -2.50024 | 26946 ft | 408 kts | 99° |
| 2026-04-30 20:15 | 51.40657 | -2.45493 | 26686 ft | 410 kts | 99° |
| 2026-04-30 20:16 | 51.40350 | -2.40944 | 26442 ft | 410 kts | 100° |
| 2026-04-30 20:16 | 51.40042 | -2.36413 | 26170 ft | 405 kts | 100° |
| 2026-04-30 20:16 | 51.39740 | -2.31957 | 25921 ft | 400 kts | 100° |
| 2026-04-30 20:16 | 51.39438 | -2.27549 | 25681 ft | 398 kts | 100° |
| 2026-04-30 20:17 | 51.39134 | -2.23146 | 25439 ft | 397 kts | 100° |
| 2026-04-30 20:17 | 51.38829 | -2.18758 | 25038 ft | 396 kts | 101° |
| 2026-04-30 20:17 | 51.38524 | -2.14396 | 24565 ft | 393 kts | 101° |
| 2026-04-30 20:17 | 51.38223 | -2.10080 | 24133 ft | 387 kts | 101° |
| 2026-04-30 20:18 | 51.37925 | -2.05823 | 23657 ft | 382 kts | 101° |
| 2026-04-30 20:18 | 51.37629 | -2.01631 | 23171 ft | 376 kts | 101° |
| 2026-04-30 20:18 | 51.37336 | -1.97512 | 22667 ft | 371 kts | 101° |
| 2026-04-30 20:18 | 51.37044 | -1.93447 | 22128 ft | 367 kts | 101° |
| 2026-04-30 20:19 | 51.36751 | -1.89393 | 21603 ft | 363 kts | 101° |
| 2026-04-30 20:19 | 51.36559 | -1.86735 | 21170 ft | 363 kts | 101° |
| 2026-04-30 20:19 | 51.36163 | -1.81323 | 20305 ft | 367 kts | 101° |
| 2026-04-30 20:19 | 51.35868 | -1.77285 | 19830 ft | 367 kts | 101° |
| 2026-04-30 20:20 | 51.35570 | -1.73225 | 19275 ft | 365 kts | 101° |
| 2026-04-30 20:20 | 51.35273 | -1.69182 | 18668 ft | 365 kts | 100° |
| 2026-04-30 20:20 | 51.34979 | -1.65212 | 17995 ft | 364 kts | 100° |
| 2026-04-30 20:20 | 51.34678 | -1.61176 | 17321 ft | 364 kts | 100° |
| 2026-04-30 20:21 | 51.34383 | -1.57203 | 16974 ft | 356 kts | 101° |
| 2026-04-30 20:21 | 51.34090 | -1.53285 | 16528 ft | 354 kts | 101° |
| 2026-04-30 20:21 | 51.33800 | -1.49443 | 16026 ft | 351 kts | 100° |
| 2026-04-30 20:21 | 51.33604 | -1.46847 | 15684 ft | 348 kts | 100° |
| 2026-04-30 20:22 | 51.33315 | -1.43026 | 15177 ft | 344 kts | 100° |
| 2026-04-30 20:22 | 51.32932 | -1.38032 | 14348 ft | 344 kts | 100° |
| 2026-04-30 20:22 | 51.32640 | -1.34244 | 13810 ft | 342 kts | 100° |
| 2026-04-30 20:22 | 51.32352 | -1.30490 | 13382 ft | 336 kts | 100° |
| 2026-04-30 20:23 | 51.32068 | -1.26815 | 12929 ft | 331 kts | 100° |
| 2026-04-30 20:23 | 51.31878 | -1.24366 | 12534 ft | 329 kts | 100° |
| 2026-04-30 20:23 | 51.31591 | -1.20708 | 11891 ft | 332 kts | 100° |
| 2026-04-30 20:23 | 51.31316 | -1.17034 | 11373 ft | 332 kts | 97° |
| 2026-04-30 20:24 | 51.31264 | -1.13363 | 10968 ft | 331 kts | 93° |
| 2026-04-30 20:24 | 51.31247 | -1.09701 | 10570 ft | 324 kts | 94° |
| 2026-04-30 20:24 | 51.31222 | -1.06175 | 10437 ft | 309 kts | 94° |
| 2026-04-30 20:24 | 51.31193 | -1.02834 | 10322 ft | 296 kts | 94° |
| 2026-04-30 20:25 | 51.31131 | -0.96471 | 9817 ft | 282 kts | 94° |
| 2026-04-30 20:25 | 51.31098 | -0.93342 | 9435 ft | 279 kts | 94° |
| 2026-04-30 20:26 | 51.31035 | -0.87184 | 8639 ft | 276 kts | 92° |
| 2026-04-30 20:26 | 51.32467 | -0.81780 | 8179 ft | 268 kts | 42° |
| 2026-04-30 20:26 | 51.34142 | -0.80505 | 8183 ft | 265 kts | 12° |
| 2026-04-30 20:27 | 51.37526 | -0.82099 | 8085 ft | 265 kts | 314° |
| 2026-04-30 20:27 | 51.39402 | -0.87020 | 7519 ft | 261 kts | 295° |
| 2026-04-30 20:28 | 51.41107 | -0.92112 | 6918 ft | 257 kts | 296° |
| 2026-04-30 20:28 | 51.43508 | -0.96123 | 6320 ft | 255 kts | 343° |
| 2026-04-30 20:29 | 51.46660 | -0.95267 | 5965 ft | 228 kts | 51° |
| 2026-04-30 20:30 | 51.47602 | -0.88905 | 5049 ft | 182 kts | 94° |
| 2026-04-30 20:30 | 51.47625 | -0.82833 | 4285 ft | 180 kts | 95° |
| 2026-04-30 20:31 | 51.47647 | -0.76884 | 3565 ft | 175 kts | 95° |
| 2026-04-30 20:32 | 51.47668 | -0.71095 | 2870 ft | 168 kts | 95° |
| 2026-04-30 20:32 | 51.47681 | -0.67647 | 2438 ft | 149 kts | 94° |
| 2026-04-30 20:33 | 51.47687 | -0.65978 | 2246 ft | 149 kts | 95° |
| 2026-04-30 20:33 | 51.47696 | -0.62678 | 1869 ft | 150 kts | 96° |
| 2026-04-30 20:33 | 51.47701 | -0.60910 | 1663 ft | 162 kts | 94° |
| 2026-04-30 20:34 | 51.47723 | -0.57695 | 1254 ft | 132 kts | 91° |
| 2026-04-30 20:34 | 51.47736 | -0.54793 | 919 ft | 129 kts | 91° |
| 2026-04-30 20:35 | 51.47747 | -0.53315 | 767 ft | 133 kts | 93° |
| 2026-04-30 20:35 | 51.47745 | -0.51858 | 532 ft | 134 kts | 90° |
| 2026-04-30 20:35 | 51.47753 | -0.48966 | 180 ft | 130 kts | 91° |
| 2026-04-30 20:36 | 51.47758 | -0.47542 | 95 ft | 118 kts | 92° |
| 2026-04-30 20:36 | 51.47757 | -0.46448 | 97 ft | 79 kts | 89° |
| 2026-04-30 20:36 | 51.47761 | -0.45187 | 94 ft | 51 kts | 90° |
| 2026-04-30 20:37 | 51.47756 | -0.44718 | 97 ft | 41 kts | 97° |
| 2026-04-30 20:37 | 51.47680 | -0.44320 | 95 ft | 28 kts | 117° |
| 2026-04-30 20:37 | 51.47617 | -0.44235 | 92 ft | 7 kts | 205° |
| 2026-04-30 20:37 | 51.47612 | -0.44240 | 93 ft | 6 kts | 214° |
| 2026-04-30 20:38 | 51.47598 | -0.44351 | 94 ft | 14 kts | 279° |
| 2026-04-30 20:38 | 51.47601 | -0.44512 | 91 ft | 10 kts | 268° |
| 2026-04-30 20:38 | 51.47598 | -0.44653 | 91 ft | 17 kts | 269° |
| 2026-04-30 20:39 | 51.47599 | -0.45136 | 91 ft | 24 kts | 270° |
| 2026-04-30 20:39 | 51.47598 | -0.45419 | 93 ft | 26 kts | 269° |
| 2026-04-30 20:39 | 51.47596 | -0.45719 | 95 ft | 28 kts | 269° |
| 2026-04-30 20:40 | 51.47595 | -0.46365 | 95 ft | 28 kts | 269° |
| 2026-04-30 20:40 | 51.47593 | -0.46685 | 94 ft | 29 kts | 270° |
| 2026-04-30 20:40 | 51.47583 | -0.47012 | 95 ft | 30 kts | 271° |
| 2026-04-30 20:41 | 51.47581 | -0.47698 | 94 ft | 32 kts | 269° |
| 2026-04-30 20:41 | 51.47572 | -0.47855 | 93 ft | 10 kts | 226° |
| 2026-04-30 20:41 | 51.47501 | -0.47874 | 94 ft | 13 kts | 180° |
| 2026-04-30 20:41 | 51.47426 | -0.47873 | 94 ft | 7 kts | 181° |
| 2026-04-30 20:42 | 51.47400 | -0.47897 | 95 ft | 3 kts | 255° |
| 2026-04-30 20:42 | 51.47399 | -0.47945 | 94 ft | 6 kts | 269° |
| 2026-04-30 20:42 | 51.47398 | -0.48005 | 94 ft | 0 kts | 269° |